sensor_id;sensor_type;location;lat;lon;timestamp;temperature;humidity
12384;DHT22;6256;63.808;20.336;2023-04-03T00:01:35;-9.50;99.90
12384;DHT22;6256;63.808;20.336;2023-04-03T00:04:02;-9.50;99.90
12384;DHT22;6256;63.808;20.336;2023-04-03T00:06:27;-9.40;99.90
12384;DHT22;6256;63.808;20.336;2023-04-03T00:08:53;-9.50;99.90
12384;DHT22;6256;63.808;20.336;2023-04-03T00:11:19;-9.50;99.90
12384;DHT22;6256;63.808;20.336;2023-04-03T00:13:46;-9.60;99.90
12384;DHT22;6256;63.808;20.336;2023-04-03T00:16:12;-9.60;99.90
12384;DHT22;6256;63.808;20.336;2023-04-03T00:18:39;-9.70;99.90
12384;DHT22;6256;63.808;20.336;2023-04-03T00:21:05;-9.70;99.90
12384;DHT22;6256;63.808;20.336;2023-04-03T00:23:31;-9.70;99.90
12384;DHT22;6256;63.808;20.336;2023-04-03T00:25:57;-9.80;99.90
12384;DHT22;6256;63.808;20.336;2023-04-03T00:28:23;-9.80;99.90
12384;DHT22;6256;63.808;20.336;2023-04-03T00:30:49;-9.80;99.90
12384;DHT22;6256;63.808;20.336;2023-04-03T00:33:15;-9.90;99.90
12384;DHT22;6256;63.808;20.336;2023-04-03T00:35:41;-9.90;99.90
12384;DHT22;6256;63.808;20.336;2023-04-03T00:38:07;-9.90;99.90
12384;DHT22;6256;63.808;20.336;2023-04-03T00:40:38;-10.00;99.90
12384;DHT22;6256;63.808;20.336;2023-04-03T00:43:19;-10.00;99.90
12384;DHT22;6256;63.808;20.336;2023-04-03T00:45:48;-10.00;99.90
12384;DHT22;6256;63.808;20.336;2023-04-03T00:48:24;-10.00;99.90
12384;DHT22;6256;63.808;20.336;2023-04-03T00:50:52;-10.10;99.90
12384;DHT22;6256;63.808;20.336;2023-04-03T00:53:22;-10.10;99.90
12384;DHT22;6256;63.808;20.336;2023-04-03T00:55:49;-10.20;99.90
12384;DHT22;6256;63.808;20.336;2023-04-03T00:58:17;-10.30;99.90
12384;DHT22;6256;63.808;20.336;2023-04-03T01:00:48;-10.30;99.90
12384;DHT22;6256;63.808;20.336;2023-04-03T01:03:17;-10.30;99.90
12384;DHT22;6256;63.808;20.336;2023-04-03T01:05:42;-10.30;99.90
12384;DHT22;6256;63.808;20.336;2023-04-03T01:08:08;-10.30;99.90
12384;DHT22;6256;63.808;20.336;2023-04-03T01:10:34;-10.30;99.90
12384;DHT22;6256;63.808;20.336;2023-04-03T01:13:00;-10.30;99.90
12384;DHT22;6256;63.808;20.336;2023-04-03T01:15:27;-10.30;99.90
12384;DHT22;6256;63.808;20.336;2023-04-03T01:17:58;-10.40;99.90
12384;DHT22;6256;63.808;20.336;2023-04-03T01:25:39;-10.40;99.90
12384;DHT22;6256;63.808;20.336;2023-04-03T01:28:06;-10.50;99.90
12384;DHT22;6256;63.808;20.336;2023-04-03T01:30:56;-10.50;99.90
12384;DHT22;6256;63.808;20.336;2023-04-03T01:33:24;-10.50;99.90
12384;DHT22;6256;63.808;20.336;2023-04-03T01:35:49;-10.50;99.90
12384;DHT22;6256;63.808;20.336;2023-04-03T01:38:15;-10.60;99.90
12384;DHT22;6256;63.808;20.336;2023-04-03T01:40:41;-10.60;99.90
12384;DHT22;6256;63.808;20.336;2023-04-03T01:43:07;-10.60;99.90
12384;DHT22;6256;63.808;20.336;2023-04-03T01:45:33;-10.60;99.90
12384;DHT22;6256;63.808;20.336;2023-04-03T01:47:59;-10.60;99.90
12384;DHT22;6256;63.808;20.336;2023-04-03T01:50:25;-10.70;99.90
12384;DHT22;6256;63.808;20.336;2023-04-03T01:52:50;-10.70;99.90
12384;DHT22;6256;63.808;20.336;2023-04-03T01:55:16;-10.70;99.90
12384;DHT22;6256;63.808;20.336;2023-04-03T01:57:42;-10.70;99.90
12384;DHT22;6256;63.808;20.336;2023-04-03T02:00:08;-10.70;99.90
12384;DHT22;6256;63.808;20.336;2023-04-03T02:02:34;-10.80;99.90
12384;DHT22;6256;63.808;20.336;2023-04-03T02:05:00;-10.80;99.90
12384;DHT22;6256;63.808;20.336;2023-04-03T02:07:26;-10.80;99.90
12384;DHT22;6256;63.808;20.336;2023-04-03T02:09:52;-10.80;99.90
12384;DHT22;6256;63.808;20.336;2023-04-03T02:12:18;-10.80;99.90
12384;DHT22;6256;63.808;20.336;2023-04-03T02:14:44;-10.90;99.90
12384;DHT22;6256;63.808;20.336;2023-04-03T02:17:09;-10.90;99.90
12384;DHT22;6256;63.808;20.336;2023-04-03T02:19:35;-10.90;99.90
12384;DHT22;6256;63.808;20.336;2023-04-03T02:22:05;-10.90;99.90
12384;DHT22;6256;63.808;20.336;2023-04-03T02:24:31;-10.90;99.90
12384;DHT22;6256;63.808;20.336;2023-04-03T02:26:58;-11.00;99.90
12384;DHT22;6256;63.808;20.336;2023-04-03T02:29:24;-11.00;99.90
12384;DHT22;6256;63.808;20.336;2023-04-03T02:31:50;-11.00;99.90
12384;DHT22;6256;63.808;20.336;2023-04-03T02:34:16;-11.00;99.90
12384;DHT22;6256;63.808;20.336;2023-04-03T02:36:42;-11.00;99.90
12384;DHT22;6256;63.808;20.336;2023-04-03T02:39:08;-11.00;99.90
12384;DHT22;6256;63.808;20.336;2023-04-03T02:41:34;-11.00;99.90
12384;DHT22;6256;63.808;20.336;2023-04-03T02:44:04;-11.10;99.90
12384;DHT22;6256;63.808;20.336;2023-04-03T02:46:30;-11.10;99.90
12384;DHT22;6256;63.808;20.336;2023-04-03T02:48:56;-11.10;99.90
12384;DHT22;6256;63.808;20.336;2023-04-03T02:51:22;-11.20;99.90
12384;DHT22;6256;63.808;20.336;2023-04-03T02:53:51;-11.20;99.90
12384;DHT22;6256;63.808;20.336;2023-04-03T02:56:17;-11.20;99.90
12384;DHT22;6256;63.808;20.336;2023-04-03T02:58:44;-11.30;99.90
12384;DHT22;6256;63.808;20.336;2023-04-03T03:01:10;-11.30;99.90
12384;DHT22;6256;63.808;20.336;2023-04-03T03:03:36;-11.30;99.90
12384;DHT22;6256;63.808;20.336;2023-04-03T03:06:03;-11.30;99.90
12384;DHT22;6256;63.808;20.336;2023-04-03T03:08:29;-11.30;99.90
12384;DHT22;6256;63.808;20.336;2023-04-03T03:10:55;-11.40;99.90
12384;DHT22;6256;63.808;20.336;2023-04-03T03:13:21;-11.40;99.90
12384;DHT22;6256;63.808;20.336;2023-04-03T03:15:46;-11.50;99.90
12384;DHT22;6256;63.808;20.336;2023-04-03T03:18:12;-11.50;99.90
12384;DHT22;6256;63.808;20.336;2023-04-03T03:20:38;-11.50;99.90
12384;DHT22;6256;63.808;20.336;2023-04-03T03:23:04;-11.50;99.90
12384;DHT22;6256;63.808;20.336;2023-04-03T03:25:29;-11.60;99.90
12384;DHT22;6256;63.808;20.336;2023-04-03T03:27:55;-11.50;99.90
12384;DHT22;6256;63.808;20.336;2023-04-03T03:30:21;-11.60;99.90
12384;DHT22;6256;63.808;20.336;2023-04-03T03:32:46;-11.60;99.90
12384;DHT22;6256;63.808;20.336;2023-04-03T03:35:12;-11.60;99.90
12384;DHT22;6256;63.808;20.336;2023-04-03T03:37:38;-11.60;99.90
12384;DHT22;6256;63.808;20.336;2023-04-03T03:40:04;-11.70;99.90
12384;DHT22;6256;63.808;20.336;2023-04-03T03:42:30;-11.70;99.90
12384;DHT22;6256;63.808;20.336;2023-04-03T03:44:55;-11.70;99.90
12384;DHT22;6256;63.808;20.336;2023-04-03T03:47:21;-11.70;99.90
12384;DHT22;6256;63.808;20.336;2023-04-03T03:49:47;-11.70;99.90
12384;DHT22;6256;63.808;20.336;2023-04-03T03:52:12;-11.70;99.90
12384;DHT22;6256;63.808;20.336;2023-04-03T03:54:38;-11.70;99.90
12384;DHT22;6256;63.808;20.336;2023-04-03T03:57:04;-11.70;99.90
12384;DHT22;6256;63.808;20.336;2023-04-03T03:59:29;-11.80;99.90
12384;DHT22;6256;63.808;20.336;2023-04-03T04:01:55;-11.80;99.90
12384;DHT22;6256;63.808;20.336;2023-04-03T04:04:21;-11.80;99.90
12384;DHT22;6256;63.808;20.336;2023-04-03T04:06:47;-11.80;99.90
12384;DHT22;6256;63.808;20.336;2023-04-03T04:09:13;-11.80;99.90
12384;DHT22;6256;63.808;20.336;2023-04-03T04:11:38;-11.80;99.90
12384;DHT22;6256;63.808;20.336;2023-04-03T04:14:06;-11.80;99.90
12384;DHT22;6256;63.808;20.336;2023-04-03T04:16:32;-11.80;99.90
12384;DHT22;6256;63.808;20.336;2023-04-03T04:18:58;-11.70;99.90
12384;DHT22;6256;63.808;20.336;2023-04-03T04:21:23;-11.80;99.90
12384;DHT22;6256;63.808;20.336;2023-04-03T04:23:49;-11.70;99.90
12384;DHT22;6256;63.808;20.336;2023-04-03T04:26:15;-11.70;99.90
12384;DHT22;6256;63.808;20.336;2023-04-03T04:28:40;-11.60;99.90
12384;DHT22;6256;63.808;20.336;2023-04-03T04:31:06;-11.60;99.90
12384;DHT22;6256;63.808;20.336;2023-04-03T04:33:32;-11.50;99.90
12384;DHT22;6256;63.808;20.336;2023-04-03T04:35:58;-11.40;99.90
12384;DHT22;6256;63.808;20.336;2023-04-03T04:38:23;-11.40;99.90
12384;DHT22;6256;63.808;20.336;2023-04-03T04:40:49;-11.40;99.90
12384;DHT22;6256;63.808;20.336;2023-04-03T04:43:15;-11.30;99.90
12384;DHT22;6256;63.808;20.336;2023-04-03T04:45:41;-11.30;99.90
12384;DHT22;6256;63.808;20.336;2023-04-03T04:48:07;-11.20;99.90
12384;DHT22;6256;63.808;20.336;2023-04-03T04:50:33;-11.10;99.90
12384;DHT22;6256;63.808;20.336;2023-04-03T04:52:58;-11.10;99.90
12384;DHT22;6256;63.808;20.336;2023-04-03T04:55:24;-11.00;99.90
12384;DHT22;6256;63.808;20.336;2023-04-03T04:57:50;-11.00;99.90
12384;DHT22;6256;63.808;20.336;2023-04-03T05:00:16;-10.90;99.90
12384;DHT22;6256;63.808;20.336;2023-04-03T05:02:42;-10.80;99.90
12384;DHT22;6256;63.808;20.336;2023-04-03T05:05:08;-10.60;99.90
12384;DHT22;6256;63.808;20.336;2023-04-03T05:07:34;-10.60;99.90
12384;DHT22;6256;63.808;20.336;2023-04-03T05:10:01;-10.40;99.90
12384;DHT22;6256;63.808;20.336;2023-04-03T05:12:28;-10.40;99.90
12384;DHT22;6256;63.808;20.336;2023-04-03T05:14:54;-10.20;99.90
12384;DHT22;6256;63.808;20.336;2023-04-03T05:17:19;-10.10;99.90
12384;DHT22;6256;63.808;20.336;2023-04-03T05:19:45;-10.00;99.90
12384;DHT22;6256;63.808;20.336;2023-04-03T05:22:11;-9.90;99.90
12384;DHT22;6256;63.808;20.336;2023-04-03T05:24:36;-9.70;99.90
12384;DHT22;6256;63.808;20.336;2023-04-03T05:27:03;-9.60;99.90
12384;DHT22;6256;63.808;20.336;2023-04-03T05:29:28;-9.50;99.90
12384;DHT22;6256;63.808;20.336;2023-04-03T05:31:54;-9.30;99.90
12384;DHT22;6256;63.808;20.336;2023-04-03T05:34:20;-9.10;99.90
12384;DHT22;6256;63.808;20.336;2023-04-03T05:36:46;-9.00;99.90
12384;DHT22;6256;63.808;20.336;2023-04-03T05:39:12;-8.90;99.90
12384;DHT22;6256;63.808;20.336;2023-04-03T05:41:38;-8.70;99.90
12384;DHT22;6256;63.808;20.336;2023-04-03T05:44:03;-8.70;99.90
12384;DHT22;6256;63.808;20.336;2023-04-03T05:46:29;-8.50;99.90
12384;DHT22;6256;63.808;20.336;2023-04-03T05:48:55;-8.40;99.90
12384;DHT22;6256;63.808;20.336;2023-04-03T05:51:28;-8.20;99.90
12384;DHT22;6256;63.808;20.336;2023-04-03T05:54:16;-8.00;99.90
12384;DHT22;6256;63.808;20.336;2023-04-03T05:56:43;-7.90;99.90
12384;DHT22;6256;63.808;20.336;2023-04-03T05:59:09;-7.70;99.90
12384;DHT22;6256;63.808;20.336;2023-04-03T06:01:35;-7.60;99.90
12384;DHT22;6256;63.808;20.336;2023-04-03T06:04:00;-7.50;99.90
12384;DHT22;6256;63.808;20.336;2023-04-03T06:06:41;-7.30;99.90
12384;DHT22;6256;63.808;20.336;2023-04-03T06:09:07;-7.10;99.90
12384;DHT22;6256;63.808;20.336;2023-04-03T06:11:33;-7.10;99.90
12384;DHT22;6256;63.808;20.336;2023-04-03T06:13:59;-7.00;99.90
12384;DHT22;6256;63.808;20.336;2023-04-03T06:16:26;-6.90;99.90
12384;DHT22;6256;63.808;20.336;2023-04-03T06:18:52;-6.80;99.90
12384;DHT22;6256;63.808;20.336;2023-04-03T06:21:18;-6.70;99.90
12384;DHT22;6256;63.808;20.336;2023-04-03T06:23:43;-6.60;99.90
12384;DHT22;6256;63.808;20.336;2023-04-03T06:26:09;-6.40;99.90
12384;DHT22;6256;63.808;20.336;2023-04-03T06:28:35;-6.30;99.90
12384;DHT22;6256;63.808;20.336;2023-04-03T06:31:01;-6.20;99.90
12384;DHT22;6256;63.808;20.336;2023-04-03T06:33:26;-6.00;99.90
12384;DHT22;6256;63.808;20.336;2023-04-03T06:35:58;-5.90;99.90
12384;DHT22;6256;63.808;20.336;2023-04-03T06:38:24;-5.80;99.90
12384;DHT22;6256;63.808;20.336;2023-04-03T06:40:50;-5.60;99.90
12384;DHT22;6256;63.808;20.336;2023-04-03T06:43:17;-5.40;99.90
12384;DHT22;6256;63.808;20.336;2023-04-03T06:45:43;-5.20;99.90
12384;DHT22;6256;63.808;20.336;2023-04-03T06:48:08;-5.10;99.90
12384;DHT22;6256;63.808;20.336;2023-04-03T06:50:34;-4.90;99.90
12384;DHT22;6256;63.808;20.336;2023-04-03T06:53:00;-4.70;99.90
12384;DHT22;6256;63.808;20.336;2023-04-03T06:55:26;-4.60;99.90
12384;DHT22;6256;63.808;20.336;2023-04-03T06:57:52;-4.50;99.90
12384;DHT22;6256;63.808;20.336;2023-04-03T07:00:18;-4.30;99.90
12384;DHT22;6256;63.808;20.336;2023-04-03T07:02:44;-4.10;99.90
12384;DHT22;6256;63.808;20.336;2023-04-03T07:05:09;-4.00;99.90
12384;DHT22;6256;63.808;20.336;2023-04-03T07:07:35;-3.90;99.90
12384;DHT22;6256;63.808;20.336;2023-04-03T07:10:01;-3.80;99.90
12384;DHT22;6256;63.808;20.336;2023-04-03T07:12:27;-3.60;99.90
12384;DHT22;6256;63.808;20.336;2023-04-03T07:14:52;-3.50;99.90
12384;DHT22;6256;63.808;20.336;2023-04-03T07:17:19;-3.40;99.90
12384;DHT22;6256;63.808;20.336;2023-04-03T07:19:44;-3.30;99.90
12384;DHT22;6256;63.808;20.336;2023-04-03T07:22:10;-3.20;99.90
12384;DHT22;6256;63.808;20.336;2023-04-03T07:24:36;-3.10;99.90
12384;DHT22;6256;63.808;20.336;2023-04-03T07:27:02;-3.00;99.90
12384;DHT22;6256;63.808;20.336;2023-04-03T07:29:28;-2.90;99.50
12384;DHT22;6256;63.808;20.336;2023-04-03T07:31:54;-2.80;98.90
12384;DHT22;6256;63.808;20.336;2023-04-03T07:34:21;-2.70;98.20
12384;DHT22;6256;63.808;20.336;2023-04-03T07:36:47;-2.60;98.10
12384;DHT22;6256;63.808;20.336;2023-04-03T07:39:13;-2.40;97.90
12384;DHT22;6256;63.808;20.336;2023-04-03T07:41:38;-2.30;97.50
12384;DHT22;6256;63.808;20.336;2023-04-03T07:44:05;-2.20;96.90
12384;DHT22;6256;63.808;20.336;2023-04-03T07:46:31;-2.10;95.60
12384;DHT22;6256;63.808;20.336;2023-04-03T07:48:57;-2.00;94.70
12384;DHT22;6256;63.808;20.336;2023-04-03T07:51:23;-1.90;93.60
12384;DHT22;6256;63.808;20.336;2023-04-03T07:53:50;-1.80;93.60
12384;DHT22;6256;63.808;20.336;2023-04-03T07:56:16;-1.80;93.00
12384;DHT22;6256;63.808;20.336;2023-04-03T07:58:42;-1.70;93.00
12384;DHT22;6256;63.808;20.336;2023-04-03T08:01:08;-1.50;92.90
12384;DHT22;6256;63.808;20.336;2023-04-03T08:03:34;-1.50;92.60
12384;DHT22;6256;63.808;20.336;2023-04-03T08:06:05;-1.30;92.80
12384;DHT22;6256;63.808;20.336;2023-04-03T08:08:32;-1.20;92.00
12384;DHT22;6256;63.808;20.336;2023-04-03T08:10:59;-1.10;91.90
12384;DHT22;6256;63.808;20.336;2023-04-03T08:13:25;-1.10;90.90
12384;DHT22;6256;63.808;20.336;2023-04-03T08:15:52;-1.00;88.90
12384;DHT22;6256;63.808;20.336;2023-04-03T08:18:18;-0.90;89.10
12384;DHT22;6256;63.808;20.336;2023-04-03T08:20:46;-0.80;89.10
12384;DHT22;6256;63.808;20.336;2023-04-03T08:23:12;-0.70;88.50
12384;DHT22;6256;63.808;20.336;2023-04-03T08:25:43;-0.60;90.10
12384;DHT22;6256;63.808;20.336;2023-04-03T08:28:10;-0.50;90.00
12384;DHT22;6256;63.808;20.336;2023-04-03T08:30:39;-0.40;87.30
12384;DHT22;6256;63.808;20.336;2023-04-03T08:33:05;-0.30;86.30
12384;DHT22;6256;63.808;20.336;2023-04-03T08:35:31;-0.30;87.10
12384;DHT22;6256;63.808;20.336;2023-04-03T08:37:57;-0.20;87.30
12384;DHT22;6256;63.808;20.336;2023-04-03T08:40:23;-0.10;85.40
12384;DHT22;6256;63.808;20.336;2023-04-03T08:45:19;0.10;84.80
12384;DHT22;6256;63.808;20.336;2023-04-03T08:48:24;0.20;81.70
12384;DHT22;6256;63.808;20.336;2023-04-03T08:50:49;0.20;80.10
12384;DHT22;6256;63.808;20.336;2023-04-03T08:53:19;0.30;83.30
12384;DHT22;6256;63.808;20.336;2023-04-03T08:55:48;0.50;83.00
12384;DHT22;6256;63.808;20.336;2023-04-03T08:58:42;0.60;82.10
12384;DHT22;6256;63.808;20.336;2023-04-03T09:03:45;1.00;83.90
12384;DHT22;6256;63.808;20.336;2023-04-03T09:06:19;1.10;83.00
12384;DHT22;6256;63.808;20.336;2023-04-03T09:08:53;1.20;80.30
12384;DHT22;6256;63.808;20.336;2023-04-03T09:16:49;1.20;75.40
12384;DHT22;6256;63.808;20.336;2023-04-03T09:19:21;1.40;79.50
12384;DHT22;6256;63.808;20.336;2023-04-03T09:21:48;1.50;75.90
12384;DHT22;6256;63.808;20.336;2023-04-03T09:24:15;1.20;74.50
12384;DHT22;6256;63.808;20.336;2023-04-03T09:26:55;1.10;75.80
12384;DHT22;6256;63.808;20.336;2023-04-03T09:29:23;1.20;77.10
12384;DHT22;6256;63.808;20.336;2023-04-03T09:31:52;1.10;77.00
12384;DHT22;6256;63.808;20.336;2023-04-03T09:34:36;1.00;74.80
12384;DHT22;6256;63.808;20.336;2023-04-03T09:37:04;0.90;76.30
12384;DHT22;6256;63.808;20.336;2023-04-03T09:39:54;0.90;75.30
12384;DHT22;6256;63.808;20.336;2023-04-03T09:42:23;1.00;79.80
12384;DHT22;6256;63.808;20.336;2023-04-03T09:44:58;1.10;77.30
12384;DHT22;6256;63.808;20.336;2023-04-03T09:49:52;1.20;75.70
12384;DHT22;6256;63.808;20.336;2023-04-03T09:52:34;1.30;74.40
12384;DHT22;6256;63.808;20.336;2023-04-03T09:57:42;1.40;75.70
12384;DHT22;6256;63.808;20.336;2023-04-03T10:00:26;1.50;75.80
12384;DHT22;6256;63.808;20.336;2023-04-03T10:02:54;1.50;73.50
12384;DHT22;6256;63.808;20.336;2023-04-03T10:05:38;1.80;77.10
12384;DHT22;6256;63.808;20.336;2023-04-03T10:10:48;1.90;77.60
12384;DHT22;6256;63.808;20.336;2023-04-03T10:13:30;2.10;75.40
12384;DHT22;6256;63.808;20.336;2023-04-03T10:16:12;2.40;76.00
12384;DHT22;6256;63.808;20.336;2023-04-03T10:21:10;2.40;74.00
12384;DHT22;6256;63.808;20.336;2023-04-03T10:23:54;2.60;77.40
12384;DHT22;6256;63.808;20.336;2023-04-03T10:26:41;2.70;73.40
12384;DHT22;6256;63.808;20.336;2023-04-03T10:29:37;2.90;74.20
12384;DHT22;6256;63.808;20.336;2023-04-03T10:32:14;3.10;72.90
12384;DHT22;6256;63.808;20.336;2023-04-03T10:34:44;3.20;74.20
12384;DHT22;6256;63.808;20.336;2023-04-03T10:42:35;3.30;71.00
12384;DHT22;6256;63.808;20.336;2023-04-03T10:45:23;3.40;72.50
12384;DHT22;6256;63.808;20.336;2023-04-03T10:48:20;3.70;72.60
12384;DHT22;6256;63.808;20.336;2023-04-03T10:51:12;3.70;71.10
12384;DHT22;6256;63.808;20.336;2023-04-03T10:53:44;4.20;70.60
12384;DHT22;6256;63.808;20.336;2023-04-03T10:56:22;4.80;73.10
12384;DHT22;6256;63.808;20.336;2023-04-03T11:01:33;5.60;65.90
12384;DHT22;6256;63.808;20.336;2023-04-03T11:04:02;5.80;68.10
12384;DHT22;6256;63.808;20.336;2023-04-03T11:06:51;6.00;66.00
12384;DHT22;6256;63.808;20.336;2023-04-03T11:09:32;6.30;66.20
12384;DHT22;6256;63.808;20.336;2023-04-03T11:12:04;6.40;66.20
12384;DHT22;6256;63.808;20.336;2023-04-03T11:14:36;6.40;62.70
12384;DHT22;6256;63.808;20.336;2023-04-03T11:20:06;7.20;63.70
12384;DHT22;6256;63.808;20.336;2023-04-03T11:22:42;7.30;61.60
12384;DHT22;6256;63.808;20.336;2023-04-03T11:27:58;7.90;61.50
12384;DHT22;6256;63.808;20.336;2023-04-03T11:30:52;8.50;61.90
12384;DHT22;6256;63.808;20.336;2023-04-03T11:36:26;9.00;61.00
12384;DHT22;6256;63.808;20.336;2023-04-03T11:38:56;8.90;58.50
12384;DHT22;6256;63.808;20.336;2023-04-03T11:41:29;8.90;57.40
12384;DHT22;6256;63.808;20.336;2023-04-03T11:44:06;9.20;59.50
12384;DHT22;6256;63.808;20.336;2023-04-03T11:46:57;9.00;58.80
12384;DHT22;6256;63.808;20.336;2023-04-03T12:16:24;8.20;59.30
12384;DHT22;6256;63.808;20.336;2023-04-03T12:26:46;7.10;58.90
12384;DHT22;6256;63.808;20.336;2023-04-03T12:29:27;6.80;60.70
12384;DHT22;6256;63.808;20.336;2023-04-03T12:43:46;5.70;61.90
12384;DHT22;6256;63.808;20.336;2023-04-03T12:46:18;5.30;59.90
12384;DHT22;6256;63.808;20.336;2023-04-03T12:51:21;5.50;64.60
12384;DHT22;6256;63.808;20.336;2023-04-03T12:53:50;5.50;62.00
12384;DHT22;6256;63.808;20.336;2023-04-03T12:56:28;5.40;61.90
12384;DHT22;6256;63.808;20.336;2023-04-03T12:58:56;5.20;59.80
12384;DHT22;6256;63.808;20.336;2023-04-03T13:01:37;5.20;61.30
12384;DHT22;6256;63.808;20.336;2023-04-03T13:04:03;5.40;62.20
12384;DHT22;6256;63.808;20.336;2023-04-03T13:06:41;5.40;60.90
12384;DHT22;6256;63.808;20.336;2023-04-03T13:09:23;5.80;62.00
12384;DHT22;6256;63.808;20.336;2023-04-03T13:12:09;6.50;62.10
12384;DHT22;6256;63.808;20.336;2023-04-03T13:14:37;7.30;60.40
12384;DHT22;6256;63.808;20.336;2023-04-03T13:17:16;7.10;57.20
12384;DHT22;6256;63.808;20.336;2023-04-03T13:19:43;7.60;58.90
12384;DHT22;6256;63.808;20.336;2023-04-03T13:24:52;8.30;55.70
12384;DHT22;6256;63.808;20.336;2023-04-03T13:27:19;8.70;58.10
12384;DHT22;6256;63.808;20.336;2023-04-03T13:29:50;8.80;56.70
12384;DHT22;6256;63.808;20.336;2023-04-03T13:32:23;8.90;57.20
12384;DHT22;6256;63.808;20.336;2023-04-03T13:34:50;9.00;55.60
12384;DHT22;6256;63.808;20.336;2023-04-03T13:37:30;9.10;58.20
12384;DHT22;6256;63.808;20.336;2023-04-03T13:40:12;9.10;57.20
12384;DHT22;6256;63.808;20.336;2023-04-03T13:42:40;9.00;57.50
12384;DHT22;6256;63.808;20.336;2023-04-03T13:45:20;8.60;57.00
12384;DHT22;6256;63.808;20.336;2023-04-03T13:47:49;8.40;57.60
12384;DHT22;6256;63.808;20.336;2023-04-03T13:50:20;8.40;58.50
12384;DHT22;6256;63.808;20.336;2023-04-03T13:52:53;8.50;56.70
12384;DHT22;6256;63.808;20.336;2023-04-03T14:00:46;8.60;57.10
12384;DHT22;6256;63.808;20.336;2023-04-03T14:06:06;8.10;54.50
12384;DHT22;6256;63.808;20.336;2023-04-03T14:08:33;8.00;57.80
12384;DHT22;6256;63.808;20.336;2023-04-03T14:10:59;7.50;57.00
12384;DHT22;6256;63.808;20.336;2023-04-03T14:13:25;7.00;57.50
12384;DHT22;6256;63.808;20.336;2023-04-03T14:15:51;7.00;57.50
12384;DHT22;6256;63.808;20.336;2023-04-03T14:18:19;7.30;58.90
12384;DHT22;6256;63.808;20.336;2023-04-03T14:20:45;7.20;58.70
12384;DHT22;6256;63.808;20.336;2023-04-03T14:23:11;6.80;59.20
12384;DHT22;6256;63.808;20.336;2023-04-03T14:25:38;6.20;59.00
12384;DHT22;6256;63.808;20.336;2023-04-03T14:28:22;6.00;60.30
12384;DHT22;6256;63.808;20.336;2023-04-03T14:30:49;5.50;58.40
12384;DHT22;6256;63.808;20.336;2023-04-03T14:33:19;5.00;58.00
12384;DHT22;6256;63.808;20.336;2023-04-03T14:35:45;4.70;59.00
12384;DHT22;6256;63.808;20.336;2023-04-03T14:38:24;4.50;60.00
12384;DHT22;6256;63.808;20.336;2023-04-03T14:40:50;4.30;61.00
12384;DHT22;6256;63.808;20.336;2023-04-03T14:43:16;3.90;59.90
12384;DHT22;6256;63.808;20.336;2023-04-03T14:45:43;3.80;62.00
12384;DHT22;6256;63.808;20.336;2023-04-03T14:48:23;3.30;61.60
12384;DHT22;6256;63.808;20.336;2023-04-03T14:50:51;3.10;64.50
12384;DHT22;6256;63.808;20.336;2023-04-03T14:53:18;2.90;63.50
12384;DHT22;6256;63.808;20.336;2023-04-03T14:55:48;2.80;63.80
12384;DHT22;6256;63.808;20.336;2023-04-03T14:58:16;2.70;63.70
12384;DHT22;6256;63.808;20.336;2023-04-03T15:00:43;2.70;66.20
12384;DHT22;6256;63.808;20.336;2023-04-03T15:03:21;2.70;67.80
12384;DHT22;6256;63.808;20.336;2023-04-03T15:05:49;2.60;68.70
12384;DHT22;6256;63.808;20.336;2023-04-03T15:08:23;2.50;67.60
12384;DHT22;6256;63.808;20.336;2023-04-03T15:10:50;2.40;67.10
12384;DHT22;6256;63.808;20.336;2023-04-03T15:13:19;2.30;67.20
12384;DHT22;6256;63.808;20.336;2023-04-03T15:15:45;2.20;67.60
12384;DHT22;6256;63.808;20.336;2023-04-03T15:18:17;2.20;69.00
12384;DHT22;6256;63.808;20.336;2023-04-03T15:20:44;1.90;67.20
12384;DHT22;6256;63.808;20.336;2023-04-03T15:23:12;1.90;69.20
12384;DHT22;6256;63.808;20.336;2023-04-03T15:25:38;1.90;68.90
12384;DHT22;6256;63.808;20.336;2023-04-03T15:28:05;1.80;69.50
12384;DHT22;6256;63.808;20.336;2023-04-03T15:30:51;1.70;69.10
12384;DHT22;6256;63.808;20.336;2023-04-03T15:33:40;1.50;70.20
12384;DHT22;6256;63.808;20.336;2023-04-03T15:36:06;1.50;70.30
12384;DHT22;6256;63.808;20.336;2023-04-03T15:38:31;1.40;70.20
12384;DHT22;6256;63.808;20.336;2023-04-03T15:40:57;1.30;69.40
12384;DHT22;6256;63.808;20.336;2023-04-03T15:43:23;1.20;70.40
12384;DHT22;6256;63.808;20.336;2023-04-03T15:45:49;1.10;71.20
12384;DHT22;6256;63.808;20.336;2023-04-03T15:48:16;1.10;71.60
12384;DHT22;6256;63.808;20.336;2023-04-03T15:50:42;0.90;73.30
12384;DHT22;6256;63.808;20.336;2023-04-03T15:53:08;0.80;73.60
12384;DHT22;6256;63.808;20.336;2023-04-03T15:55:36;0.70;74.80
12384;DHT22;6256;63.808;20.336;2023-04-03T15:58:02;0.70;75.70
12384;DHT22;6256;63.808;20.336;2023-04-03T16:00:29;0.60;76.00
12384;DHT22;6256;63.808;20.336;2023-04-03T16:03:02;0.60;78.60
12384;DHT22;6256;63.808;20.336;2023-04-03T16:05:30;0.60;79.20
12384;DHT22;6256;63.808;20.336;2023-04-03T16:07:58;0.50;78.70
12384;DHT22;6256;63.808;20.336;2023-04-03T16:10:25;0.40;78.40
12384;DHT22;6256;63.808;20.336;2023-04-03T16:12:51;0.50;79.20
12384;DHT22;6256;63.808;20.336;2023-04-03T16:15:17;0.40;79.10
12384;DHT22;6256;63.808;20.336;2023-04-03T16:17:43;0.40;79.10
12384;DHT22;6256;63.808;20.336;2023-04-03T16:20:09;0.40;78.90
12384;DHT22;6256;63.808;20.336;2023-04-03T16:22:36;0.40;79.80
12384;DHT22;6256;63.808;20.336;2023-04-03T16:25:03;0.30;80.60
12384;DHT22;6256;63.808;20.336;2023-04-03T16:27:29;0.20;80.00
12384;DHT22;6256;63.808;20.336;2023-04-03T16:29:57;0.30;80.40
12384;DHT22;6256;63.808;20.336;2023-04-03T16:32:23;0.30;81.40
12384;DHT22;6256;63.808;20.336;2023-04-03T16:34:49;0.20;81.30
12384;DHT22;6256;63.808;20.336;2023-04-03T16:37:16;0.20;82.20
12384;DHT22;6256;63.808;20.336;2023-04-03T16:39:41;0.20;83.10
12384;DHT22;6256;63.808;20.336;2023-04-03T16:42:07;0.10;83.60
12384;DHT22;6256;63.808;20.336;2023-04-03T16:44:35;0.10;84.60
12384;DHT22;6256;63.808;20.336;2023-04-03T16:47:01;0.00;85.40
12384;DHT22;6256;63.808;20.336;2023-04-03T16:49:27;0.10;86.40
12384;DHT22;6256;63.808;20.336;2023-04-03T16:51:57;0.00;87.00
12384;DHT22;6256;63.808;20.336;2023-04-03T16:54:23;-0.10;88.50
12384;DHT22;6256;63.808;20.336;2023-04-03T16:56:49;-0.10;89.30
12384;DHT22;6256;63.808;20.336;2023-04-03T16:59:15;-0.20;89.90
12384;DHT22;6256;63.808;20.336;2023-04-03T17:01:41;-0.30;90.40
12384;DHT22;6256;63.808;20.336;2023-04-03T17:04:06;-0.40;90.70
12384;DHT22;6256;63.808;20.336;2023-04-03T17:06:35;-0.50;91.40
12384;DHT22;6256;63.808;20.336;2023-04-03T17:09:01;-0.50;92.10
12384;DHT22;6256;63.808;20.336;2023-04-03T17:11:27;-0.60;92.30
12384;DHT22;6256;63.808;20.336;2023-04-03T17:13:53;-0.70;92.80
12384;DHT22;6256;63.808;20.336;2023-04-03T17:16:19;-0.70;93.30
12384;DHT22;6256;63.808;20.336;2023-04-03T17:18:45;-0.80;94.00
12384;DHT22;6256;63.808;20.336;2023-04-03T17:21:13;-0.90;94.50
12384;DHT22;6256;63.808;20.336;2023-04-03T17:23:40;-0.90;95.20
12384;DHT22;6256;63.808;20.336;2023-04-03T17:26:06;-1.00;95.80